createdAt,value
2018-10-18T00:01:38.145Z,65.52
2018-10-18T00:04:06.643Z,65.54
2018-10-18T00:06:35.145Z,67.51
2018-10-18T00:09:04.768Z,66.73
2018-10-18T00:11:33.377Z,66.41
2018-10-18T00:14:01.899Z,67.87
2018-10-18T00:16:30.481Z,66.29
2018-10-18T00:18:58.995Z,66.05
2018-10-18T00:21:27.480Z,67.17
2018-10-18T00:23:56.093Z,66.58
2018-10-18T00:26:24.673Z,66.93
2018-10-18T00:28:53.241Z,68.94
2018-10-18T00:31:21.776Z,66.72
2018-10-18T00:33:50.321Z,67.21
2018-10-18T00:36:18.865Z,67.11
2018-10-18T00:38:47.280Z,67.79
2018-10-18T00:41:15.806Z,66.92
2018-10-18T00:43:44.268Z,66.35
2018-10-18T00:46:12.730Z,66.32
2018-10-18T00:48:41.193Z,66.58
2018-10-18T00:51:09.602Z,68.78
2018-10-18T00:53:38.028Z,67.61
2018-10-18T00:56:06.513Z,66.67
2018-10-18T00:58:34.994Z,66.81
2018-10-18T01:01:03.566Z,66.35
2018-10-18T01:03:32.024Z,68.32
2018-10-18T01:06:00.619Z,67.99
2018-10-18T01:08:29.126Z,69.17
2018-10-18T01:10:57.594Z,68.57
2018-10-18T01:13:26.065Z,67.85
2018-10-18T01:15:54.565Z,66.96
2018-10-18T01:18:23.019Z,66.93
2018-10-18T01:20:51.478Z,70.16
2018-10-18T01:23:19.998Z,68.71
2018-10-18T01:28:13.597Z,67.35
2018-10-18T01:30:42.017Z,68.91
2018-10-18T01:33:10.389Z,67.58
2018-10-18T01:35:38.756Z,67.41
2018-10-18T01:38:07.202Z,67.04
2018-10-18T01:40:35.657Z,66.60
2018-10-18T01:43:04.112Z,69.23
2018-10-18T01:45:32.488Z,66.96
2018-10-18T01:48:00.891Z,66.85
2018-10-18T01:50:29.244Z,67.17
2018-10-18T01:52:57.583Z,68.15
2018-10-18T01:55:25.962Z,67.76
2018-10-18T01:57:54.358Z,66.97
2018-10-18T02:00:22.803Z,68.71
2018-10-18T02:02:51.176Z,66.68
2018-10-18T02:05:19.539Z,68.60
2018-10-18T02:07:47.936Z,68.43
2018-10-18T02:10:16.291Z,66.25
2018-10-18T02:12:44.674Z,66.32
2018-10-18T02:15:13.028Z,67.58
2018-10-18T02:17:41.548Z,67.66
2018-10-18T02:20:10.960Z,66.55
2018-10-18T02:22:39.736Z,66.28
2018-10-18T02:25:08.200Z,66.30
2018-10-18T02:27:36.597Z,67.42
2018-10-18T02:30:05.675Z,67.21
2018-10-18T02:32:34.003Z,69.30
2018-10-18T02:35:02.396Z,67.80
2018-10-18T02:37:30.786Z,69.50
2018-10-18T02:39:59.183Z,68.35
2018-10-18T02:42:27.592Z,67.72
2018-10-18T02:44:55.961Z,67.37
2018-10-18T02:47:24.341Z,69.66
2018-10-18T02:49:52.697Z,69.88
2018-10-18T02:52:21.069Z,68.33
2018-10-18T02:54:49.523Z,69.50
2018-10-18T02:57:17.876Z,69.97
2018-10-18T02:59:46.216Z,69.15
2018-10-18T03:02:14.576Z,68.05
2018-10-18T03:04:42.900Z,68.00
2018-10-18T03:07:11.237Z,68.10
2018-10-18T03:09:39.617Z,68.28
2018-10-18T03:12:07.986Z,69.64
2018-10-18T03:14:36.356Z,68.78
2018-10-18T03:17:04.892Z,68.17
2018-10-18T03:19:33.236Z,68.38
2018-10-18T03:22:01.612Z,68.09
2018-10-18T03:24:30.010Z,70.69
2018-10-18T03:26:58.447Z,70.12
2018-10-18T03:29:26.879Z,71.16
2018-10-18T03:31:55.413Z,78.28
2018-10-18T03:34:23.821Z,76.45
2018-10-18T03:36:52.272Z,77.57
2018-10-18T03:39:20.689Z,75.53
2018-10-18T03:41:49.107Z,76.31
2018-10-18T03:44:24.108Z,76.31
2018-10-18T03:46:52.529Z,76.82
2018-10-18T03:49:20.950Z,75.95
2018-10-18T03:51:49.316Z,76.55
2018-10-18T03:54:17.729Z,75.14
2018-10-18T03:56:46.281Z,75.88
2018-10-18T03:59:14.640Z,74.01
2018-10-18T04:01:43.092Z,73.26
2018-10-18T04:04:11.492Z,74.96
2018-10-18T04:06:39.889Z,75.00
2018-10-18T04:09:09.722Z,74.35
2018-10-18T04:11:38.296Z,73.69
2018-10-18T04:14:07.076Z,72.67
2018-10-18T04:16:35.509Z,72.06
2018-10-18T04:19:03.924Z,71.71
2018-10-18T04:21:32.305Z,71.60
2018-10-18T04:24:00.781Z,73.17
2018-10-18T04:26:29.134Z,72.97
2018-10-18T04:28:57.544Z,73.76
2018-10-18T04:31:26.161Z,72.50
2018-10-18T04:33:54.556Z,71.47
2018-10-18T04:36:22.980Z,73.34
2018-10-18T04:38:51.384Z,72.92
2018-10-18T04:41:19.812Z,73.30
2018-10-18T04:43:48.204Z,72.61
2018-10-18T04:46:16.612Z,73.61
2018-10-18T04:48:45.049Z,72.13
2018-10-18T04:51:13.324Z,72.93
2018-10-18T04:53:41.754Z,74.02
2018-10-18T04:56:10.240Z,74.45
2018-10-18T04:58:38.700Z,75.13
2018-10-18T05:01:07.236Z,75.67
2018-10-18T05:03:35.628Z,72.93
2018-10-18T05:06:05.177Z,73.06
2018-10-18T05:08:33.571Z,73.59
2018-10-18T05:11:02.265Z,74.46
2018-10-18T05:13:30.636Z,72.94
2018-10-18T05:15:59.014Z,73.33
2018-10-18T05:21:11.499Z,71.91
2018-10-18T05:23:40.132Z,71.19
2018-10-18T05:26:14.942Z,71.74
2018-10-18T05:28:43.407Z,72.64
2018-10-18T05:31:11.973Z,72.50
2018-10-18T05:33:40.394Z,74.42
2018-10-18T05:36:08.912Z,75.86
2018-10-18T05:38:37.408Z,74.94
2018-10-18T05:41:05.936Z,71.91
2018-10-18T05:43:34.455Z,72.85
2018-10-18T05:46:03.036Z,72.28
2018-10-18T05:48:31.517Z,73.54
2018-10-18T05:51:00.033Z,73.95
2018-10-18T05:53:28.690Z,75.21
2018-10-18T05:55:57.179Z,74.09
2018-10-18T05:58:25.753Z,74.25
2018-10-18T06:00:55.289Z,75.07
2018-10-18T06:03:23.835Z,72.99
2018-10-18T06:05:52.387Z,74.19
2018-10-18T06:08:21.031Z,71.78
2018-10-18T06:11:01.674Z,74.45
2018-10-18T06:13:31.127Z,73.48
2018-10-18T06:16:00.601Z,73.29
2018-10-18T06:18:29.129Z,72.23
2018-10-18T06:20:57.760Z,72.88
2018-10-18T06:23:26.281Z,72.66
2018-10-18T06:25:54.705Z,72.09
2018-10-18T06:28:23.149Z,72.12
2018-10-18T06:30:51.576Z,73.03
2018-10-18T06:33:20.037Z,72.16
2018-10-18T06:35:48.441Z,70.50
2018-10-18T06:38:16.868Z,70.50
2018-10-18T06:40:45.344Z,70.19
2018-10-18T06:43:14.844Z,71.36
2018-10-18T06:45:43.253Z,71.49
2018-10-18T06:48:11.709Z,72.71
2018-10-18T06:50:40.129Z,71.18
2018-10-18T06:53:08.636Z,69.66
2018-10-18T06:55:37.169Z,70.21
2018-10-18T06:58:05.744Z,69.18
2018-10-18T07:00:34.224Z,68.86
2018-10-18T07:03:02.666Z,68.53
2018-10-18T07:05:31.033Z,68.28
2018-10-18T07:07:59.552Z,68.39
2018-10-18T07:10:28.092Z,68.16
2018-10-18T07:12:56.664Z,68.40
2018-10-18T07:15:25.156Z,68.95
2018-10-18T07:17:53.757Z,67.17
2018-10-18T07:20:22.288Z,67.88
2018-10-18T07:22:57.412Z,66.58
2018-10-18T07:25:26.015Z,65.25
2018-10-18T07:27:54.346Z,65.89
2018-10-18T07:30:22.733Z,65.60
2018-10-18T07:32:51.202Z,64.46
2018-10-18T07:35:20.614Z,64.28
2018-10-18T07:37:48.998Z,63.28
2018-10-18T07:40:17.412Z,62.02
2018-10-18T07:42:45.797Z,62.70
2018-10-18T07:45:14.749Z,60.27
2018-10-18T07:47:43.805Z,59.97
2018-10-18T07:50:12.676Z,59.87
2018-10-18T07:52:41.112Z,60.18
2018-10-18T07:55:10.409Z,58.73
2018-10-18T07:57:38.890Z,57.58
2018-10-18T08:00:10.516Z,58.38
2018-10-18T08:02:38.955Z,58.98
2018-10-18T08:05:07.752Z,60.06
2018-10-18T08:07:36.220Z,58.18
2018-10-18T08:10:05.817Z,57.05
2018-10-18T08:12:34.220Z,57.37
2018-10-18T08:15:02.697Z,56.37
2018-10-18T08:17:31.125Z,58.45
2018-10-18T08:19:59.608Z,57.78
2018-10-18T08:22:28.108Z,59.07
2018-10-18T08:24:56.508Z,57.14
2018-10-18T08:27:25.065Z,56.99
2018-10-18T08:29:53.633Z,56.19
2018-10-18T08:32:23.164Z,54.08
2018-10-18T08:34:51.692Z,49.80
2018-10-18T08:37:20.225Z,49.70
2018-10-18T08:39:48.741Z,50.36
2018-10-18T08:42:17.227Z,50.54
2018-10-18T08:44:45.732Z,50.33
2018-10-18T08:47:14.288Z,51.87
2018-10-18T08:49:42.749Z,50.72
2018-10-18T08:52:11.256Z,50.87
2018-10-18T08:54:39.828Z,52.79
2018-10-18T08:57:08.333Z,52.75
2018-10-18T08:59:36.860Z,51.53
2018-10-18T09:02:05.547Z,53.73
2018-10-18T09:04:34.078Z,52.70
2018-10-18T09:07:02.607Z,54.99
2018-10-18T09:09:31.260Z,55.30
2018-10-18T09:11:59.807Z,53.53
2018-10-18T09:14:28.634Z,52.03
2018-10-18T09:16:58.130Z,52.00
2018-10-18T09:19:26.606Z,51.41
2018-10-18T09:21:56.072Z,52.00
2018-10-18T09:24:24.508Z,53.42
2018-10-18T09:26:52.981Z,54.50
2018-10-18T09:29:21.537Z,53.65
2018-10-18T09:31:50.014Z,55.98
2018-10-18T09:34:18.573Z,55.44
2018-10-18T09:36:47.070Z,57.51
2018-10-18T09:39:15.553Z,56.32
2018-10-18T09:41:44.088Z,57.21
2018-10-18T09:44:12.614Z,59.45
2018-10-18T09:46:41.094Z,58.13
2018-10-18T09:49:09.608Z,58.63
2018-10-18T09:51:38.004Z,58.83
2018-10-18T09:54:06.619Z,60.05
2018-10-18T09:56:35.148Z,63.62
2018-10-18T09:59:04.767Z,63.13
2018-10-18T10:01:38.564Z,61.67
2018-10-18T10:04:07.010Z,60.08
2018-10-18T10:06:35.419Z,63.77
2018-10-18T10:09:04.105Z,62.79
2018-10-18T10:11:32.569Z,62.93
2018-10-18T10:14:01.069Z,62.71
2018-10-18T10:16:29.518Z,64.23
2018-10-18T10:18:58.095Z,62.90
2018-10-18T10:21:26.564Z,63.62
2018-10-18T10:23:55.092Z,62.55
2018-10-18T10:26:23.679Z,65.27
2018-10-18T10:28:52.141Z,64.02
2018-10-18T10:31:20.621Z,63.90
2018-10-18T10:33:48.996Z,65.67
2018-10-18T10:36:17.468Z,64.75
2018-10-18T10:38:45.950Z,66.38
2018-10-18T10:41:14.448Z,63.27
2018-10-18T10:43:42.779Z,63.05
2018-10-18T10:46:11.297Z,64.73
2018-10-18T10:48:39.824Z,62.14
2018-10-18T10:51:09.302Z,62.64
2018-10-18T10:53:38.355Z,61.44
2018-10-18T10:56:08.161Z,62.04
2018-10-18T10:58:37.784Z,61.09
2018-10-18T11:01:15.689Z,62.00
2018-10-18T11:03:45.652Z,61.02
2018-10-18T11:06:15.439Z,60.59
2018-10-18T11:08:44.929Z,59.98
2018-10-18T11:11:15.281Z,61.59
2018-10-18T11:13:44.734Z,60.97
2018-10-18T11:16:14.046Z,60.07
2018-10-18T11:18:43.833Z,60.33
2018-10-18T11:21:17.650Z,59.25
2018-10-18T11:23:48.088Z,58.80
2018-10-18T11:28:54.737Z,57.02
2018-10-18T11:31:24.706Z,59.51
2018-10-18T11:33:58.874Z,57.46
2018-10-18T11:36:28.217Z,57.02
2018-10-18T11:38:57.572Z,55.86
2018-10-18T11:41:27.028Z,55.88
2018-10-18T11:43:56.438Z,58.96
2018-10-18T11:46:26.447Z,57.28
2018-10-18T11:48:55.974Z,56.71
2018-10-18T11:51:25.526Z,58.00
2018-10-18T11:53:55.062Z,57.45
2018-10-18T11:56:24.507Z,59.10
2018-10-18T11:58:53.945Z,58.59
2018-10-18T12:01:23.535Z,58.24
2018-10-18T12:03:59.329Z,57.47
2018-10-18T12:06:28.832Z,56.94
2018-10-18T12:08:58.169Z,58.02
2018-10-18T12:11:26.791Z,58.04
2018-10-18T12:13:55.251Z,56.01
2018-10-18T12:16:23.719Z,55.57
2018-10-18T12:18:52.197Z,54.55
2018-10-18T12:21:20.591Z,51.95
2018-10-18T12:23:49.027Z,51.32
2018-10-18T12:26:17.702Z,51.69
2018-10-18T12:28:46.174Z,50.12
2018-10-18T12:31:14.958Z,50.95
2018-10-18T12:33:43.445Z,51.62
2018-10-18T12:36:11.844Z,51.20
2018-10-18T12:38:40.335Z,53.45
2018-10-18T12:41:08.874Z,52.24
2018-10-18T12:43:37.318Z,54.30
2018-10-18T12:46:06.060Z,53.12
2018-10-18T12:48:34.666Z,51.50
2018-10-18T12:51:03.091Z,52.61
2018-10-18T12:53:31.762Z,55.05
2018-10-18T12:56:00.283Z,57.77
2018-10-18T12:58:28.751Z,56.42
2018-10-18T13:00:57.232Z,54.90
2018-10-18T13:03:25.632Z,55.08
2018-10-18T13:05:54.080Z,56.17
2018-10-18T13:08:22.533Z,57.08
2018-10-18T13:10:50.959Z,56.28
2018-10-18T13:13:19.353Z,54.54
2018-10-18T13:15:47.761Z,54.76
2018-10-18T13:18:16.230Z,55.21
2018-10-18T13:20:44.723Z,55.07
2018-10-18T13:23:13.156Z,55.44
2018-10-18T13:25:41.444Z,54.70
2018-10-18T13:28:09.783Z,55.55
2018-10-18T13:30:38.143Z,57.74
2018-10-18T13:33:06.627Z,57.84
2018-10-18T13:35:35.013Z,55.93
2018-10-18T13:38:03.666Z,58.46
2018-10-18T13:40:32.214Z,56.89
2018-10-18T13:43:00.730Z,54.63
2018-10-18T13:45:29.191Z,55.25
2018-10-18T13:47:57.697Z,55.23
2018-10-18T13:50:26.173Z,54.67
2018-10-18T13:52:54.726Z,54.86
2018-10-18T13:55:25.200Z,54.93
2018-10-18T13:57:53.645Z,54.60
2018-10-18T14:00:26.665Z,55.81
2018-10-18T14:02:55.564Z,53.84
2018-10-18T14:05:24.399Z,53.54
2018-10-18T14:07:53.751Z,53.07
2018-10-18T14:10:22.223Z,51.52
2018-10-18T14:12:51.241Z,50.95
2018-10-18T14:15:19.666Z,50.58
2018-10-18T14:17:48.178Z,50.78
2018-10-18T14:20:16.619Z,49.64
2018-10-18T14:22:44.965Z,49.46
2018-10-18T14:25:13.492Z,48.33
2018-10-18T14:27:50.012Z,49.64
2018-10-18T14:30:18.714Z,49.35
2018-10-18T14:32:47.205Z,49.10
2018-10-18T14:35:36.763Z,52.11
2018-10-18T14:38:05.240Z,49.54
2018-10-18T14:40:33.617Z,50.90
2018-10-18T14:43:02.147Z,49.60
2018-10-18T14:45:30.521Z,48.67
2018-10-18T14:47:58.962Z,50.09
2018-10-18T14:50:27.418Z,51.15
2018-10-18T14:52:55.716Z,51.58
2018-10-18T14:55:24.123Z,52.30
2018-10-18T14:57:52.573Z,49.88
2018-10-18T15:00:20.995Z,51.72
2018-10-18T15:02:49.381Z,52.29
2018-10-18T15:05:17.921Z,51.79
2018-10-18T15:07:47.207Z,51.70
2018-10-18T15:10:15.577Z,51.37
2018-10-18T15:12:44.126Z,51.04
2018-10-18T15:15:13.721Z,52.64
2018-10-18T15:17:42.480Z,52.35
2018-10-18T15:20:11.812Z,52.22
2018-10-18T15:22:41.039Z,54.90
2018-10-18T15:25:10.388Z,54.53
2018-10-18T15:27:39.117Z,53.19
2018-10-18T15:30:08.387Z,52.33
2018-10-18T15:32:37.378Z,53.80
2018-10-18T15:35:06.421Z,54.13
2018-10-18T15:37:34.809Z,53.88
2018-10-18T15:40:03.388Z,53.05
2018-10-18T15:42:31.904Z,52.87
2018-10-18T15:45:00.452Z,51.67
2018-10-18T15:47:28.861Z,51.43
2018-10-18T15:49:57.419Z,53.41
2018-10-18T15:52:25.896Z,54.82
2018-10-18T15:54:54.314Z,53.90
2018-10-18T15:57:22.775Z,54.08
2018-10-18T15:59:51.171Z,54.28
2018-10-18T16:02:19.623Z,55.75
2018-10-18T16:04:48.076Z,55.75
2018-10-18T16:07:16.511Z,55.45
2018-10-18T16:09:44.982Z,56.37
2018-10-18T16:12:13.503Z,55.84
2018-10-18T16:14:41.983Z,56.22
2018-10-18T16:17:12.463Z,56.66
2018-10-18T16:19:40.927Z,56.31
2018-10-18T16:22:09.483Z,56.67
2018-10-18T16:24:38.007Z,57.53
2018-10-18T16:27:06.503Z,57.44
2018-10-18T16:29:35.027Z,57.63
2018-10-18T16:32:03.612Z,58.49
2018-10-18T16:34:32.124Z,58.33
2018-10-18T16:37:00.532Z,58.19
2018-10-18T16:39:28.975Z,58.48
2018-10-18T16:41:57.390Z,57.96
2018-10-18T16:44:25.836Z,58.13
2018-10-18T16:46:54.302Z,58.45
2018-10-18T16:49:22.807Z,59.28
2018-10-18T16:51:51.702Z,60.39
2018-10-18T16:54:20.171Z,60.22
2018-10-18T16:56:48.600Z,60.40
2018-10-18T16:59:17.114Z,60.87
2018-10-18T17:01:45.547Z,61.44
2018-10-18T17:04:14.052Z,60.27
2018-10-18T17:06:42.375Z,61.43
2018-10-18T17:09:11.435Z,60.80
2018-10-18T17:11:39.936Z,61.18
2018-10-18T17:14:08.575Z,60.90
2018-10-18T17:16:36.934Z,61.27
2018-10-18T17:19:05.861Z,60.82
2018-10-18T17:21:34.327Z,60.43
2018-10-18T17:24:02.882Z,60.31
2018-10-18T17:26:31.455Z,60.45
2018-10-18T17:28:59.900Z,60.88
2018-10-18T17:31:28.483Z,61.40
2018-10-18T17:33:57.114Z,60.53
2018-10-18T17:36:25.921Z,60.95
2018-10-18T17:38:54.410Z,60.06
2018-10-18T17:41:22.856Z,60.16
2018-10-18T17:43:51.283Z,60.76
2018-10-18T17:46:19.810Z,61.15
2018-10-18T17:48:48.075Z,61.83
2018-10-18T17:51:16.431Z,61.56
2018-10-18T17:53:44.967Z,61.14
2018-10-18T17:56:13.493Z,62.13
2018-10-18T17:58:41.884Z,61.26
2018-10-18T18:01:10.363Z,64.90
2018-10-18T18:03:38.725Z,62.46
2018-10-18T18:06:07.287Z,62.88
2018-10-18T18:08:35.551Z,62.81
2018-10-18T18:11:03.995Z,64.60
2018-10-18T18:13:32.517Z,63.46
2018-10-18T18:16:00.931Z,64.09
2018-10-18T18:18:29.269Z,64.00
2018-10-18T18:20:57.671Z,64.88
2018-10-18T18:23:26.106Z,64.86
2018-10-18T18:25:54.606Z,63.49
2018-10-18T18:28:22.980Z,63.52
2018-10-18T18:30:51.310Z,63.47
2018-10-18T18:33:19.791Z,64.43
2018-10-18T18:35:48.143Z,64.09
2018-10-18T18:38:16.495Z,64.13
2018-10-18T18:40:44.808Z,64.30
2018-10-18T18:43:13.090Z,65.29
2018-10-18T18:45:42.651Z,66.42
2018-10-18T18:48:10.956Z,64.54
2018-10-18T18:50:39.238Z,64.33
2018-10-18T18:53:07.802Z,63.23
2018-10-18T18:55:40.693Z,63.18
2018-10-18T18:58:09.019Z,61.78
2018-10-18T19:00:37.364Z,64.76
2018-10-18T19:03:06.267Z,64.92
2018-10-18T19:05:34.541Z,63.27
2018-10-18T19:08:02.880Z,62.70
2018-10-18T19:10:31.182Z,64.33
2018-10-18T19:13:00.029Z,63.28
2018-10-18T19:15:28.499Z,64.43
2018-10-18T19:17:56.914Z,63.52
2018-10-18T19:20:25.299Z,63.52
2018-10-18T19:22:53.706Z,65.14
2018-10-18T19:25:22.117Z,66.00
2018-10-18T19:27:50.512Z,65.89
2018-10-18T19:30:18.880Z,67.30
2018-10-18T19:32:47.319Z,66.28
2018-10-18T19:35:15.787Z,68.49
2018-10-18T19:37:44.182Z,67.61
2018-10-18T19:40:12.644Z,67.60
2018-10-18T19:42:41.079Z,68.32
2018-10-18T19:45:09.939Z,67.69
2018-10-18T19:47:38.619Z,68.43
2018-10-18T19:50:07.690Z,68.49
2018-10-18T19:52:36.339Z,67.60
2018-10-18T19:55:04.660Z,68.73
2018-10-18T19:57:33.096Z,69.35
2018-10-18T20:00:01.598Z,70.38
2018-10-18T20:02:30.077Z,69.76
2018-10-18T20:04:58.495Z,67.83
2018-10-18T20:07:26.958Z,67.86
2018-10-18T20:09:55.324Z,67.84
2018-10-18T20:12:23.747Z,68.14
2018-10-18T20:14:52.178Z,68.31
2018-10-18T20:17:20.558Z,67.92
2018-10-18T20:19:48.974Z,67.24
2018-10-18T20:22:17.371Z,67.04
2018-10-18T20:24:45.832Z,67.11
2018-10-18T20:27:14.190Z,67.28
2018-10-18T20:29:42.595Z,67.39
2018-10-18T20:32:11.098Z,65.75
2018-10-18T20:34:39.542Z,65.71
2018-10-18T20:37:07.959Z,66.46
2018-10-18T20:39:36.419Z,67.51
2018-10-18T20:42:05.002Z,66.47
2018-10-18T20:44:33.543Z,65.39
2018-10-18T20:47:02.632Z,66.71
2018-10-18T20:49:31.705Z,68.21
2018-10-18T20:52:03.007Z,68.62
2018-10-18T20:54:32.472Z,73.25
2018-10-18T20:57:04.405Z,70.29
2018-10-18T20:59:32.911Z,69.86
2018-10-18T21:02:01.435Z,70.18
2018-10-18T21:04:30.136Z,72.67
2018-10-18T21:06:58.584Z,72.80
2018-10-18T21:09:27.109Z,70.76
2018-10-18T21:11:56.608Z,70.92
2018-10-18T21:14:24.979Z,70.72
2018-10-18T21:16:53.425Z,70.07
2018-10-18T21:19:21.886Z,72.24
2018-10-18T21:21:50.302Z,72.34
2018-10-18T21:24:18.733Z,72.72
2018-10-18T21:26:47.191Z,73.20
2018-10-18T21:29:15.664Z,72.75
2018-10-18T21:31:44.167Z,72.08
2018-10-18T21:34:12.650Z,72.44
2018-10-18T21:36:41.112Z,72.86
2018-10-18T21:39:09.748Z,71.55
2018-10-18T21:41:38.415Z,69.30
2018-10-18T21:44:06.839Z,71.48
2018-10-18T21:46:35.288Z,70.86
2018-10-18T21:49:03.942Z,72.41
2018-10-18T21:51:32.377Z,73.61
2018-10-18T21:54:00.984Z,71.96
2018-10-18T21:56:29.639Z,71.49
2018-10-18T21:58:58.445Z,71.40
2018-10-18T22:01:26.956Z,72.32
2018-10-18T22:03:55.551Z,71.41
2018-10-18T22:06:24.371Z,70.51
2018-10-18T22:08:53.948Z,71.22
2018-10-18T22:11:22.466Z,68.81
2018-10-18T22:13:51.049Z,70.16
2018-10-18T22:16:19.548Z,70.28
2018-10-18T22:18:47.951Z,69.44
2018-10-18T22:21:16.584Z,69.40
2018-10-18T22:23:44.856Z,69.35
2018-10-18T22:26:13.247Z,67.24
2018-10-18T22:28:41.670Z,69.71
2018-10-18T22:31:10.087Z,68.63
2018-10-18T22:33:38.693Z,69.97
2018-10-18T22:36:07.119Z,67.87
2018-10-18T22:38:35.495Z,68.53
2018-10-18T22:41:03.933Z,69.69
2018-10-18T22:43:32.255Z,68.70
2018-10-18T22:46:00.874Z,68.96
2018-10-18T22:48:30.592Z,67.98
2018-10-18T22:51:00.349Z,67.76
2018-10-18T22:53:30.054Z,67.15
2018-10-18T22:55:58.448Z,67.46
2018-10-18T22:58:26.810Z,67.14
2018-10-18T23:00:55.244Z,66.58
2018-10-18T23:03:23.609Z,66.70
2018-10-18T23:05:51.959Z,66.60
2018-10-18T23:08:20.356Z,68.04
2018-10-18T23:10:48.684Z,66.83
2018-10-18T23:13:17.026Z,67.64
2018-10-18T23:15:45.386Z,66.73
2018-10-18T23:18:13.749Z,65.54
2018-10-18T23:20:42.166Z,66.69
2018-10-18T23:23:11.209Z,67.15
2018-10-18T23:25:39.898Z,66.24
2018-10-18T23:28:08.251Z,67.62
2018-10-18T23:30:36.710Z,67.76
2018-10-18T23:33:05.201Z,67.30
2018-10-18T23:35:33.556Z,67.69
2018-10-18T23:38:01.927Z,66.21
2018-10-18T23:40:30.341Z,67.01
2018-10-18T23:42:58.805Z,68.58
2018-10-18T23:45:27.167Z,69.22
2018-10-18T23:47:55.567Z,67.45
2018-10-18T23:50:23.987Z,68.86
2018-10-18T23:52:52.398Z,69.78
2018-10-18T23:55:20.778Z,69.09
2018-10-18T23:57:49.187Z,67.81
